Time;durP1;ratioP1;P1;durP2;ratioP2;P2;SDS_P1;SDS_P2;PMS_P1;PMS_P2;Temp;Humidity;BMP_temperature;BMP_pressure;BME280_temperature;BME280_humidity;BME280_pressure;Samples;Min_cycle;Max_cycle;Signal;HPM_P1;HPM_P2
2021/09/17 00:02:11;;;;;;;32.38;25.88;;;15.00;99.90;;;;;;5020650;28;20047;-78
2021/09/17 00:04:37;;;;;;;27.85;22.95;;;15.00;99.90;;;;;;5020242;28;20117;-80
2021/09/17 00:07:03;;;;;;;30.33;25.88;;;15.10;99.90;;;;;;5019959;28;20088;-79
2021/09/17 00:09:28;;;;;;;31.70;26.60;;;15.20;99.90;;;;;;5019995;28;20037;-79
2021/09/17 00:11:54;;;;;;;34.03;26.60;;;15.30;99.90;;;;;;5020162;28;20042;-80
2021/09/17 00:14:20;;;;;;;31.15;25.65;;;15.50;99.90;;;;;;5020748;28;20036;-80
2021/09/17 00:16:46;;;;;;;36.15;24.65;;;15.50;99.90;;;;;;5020956;28;20438;-80
2021/09/17 00:19:11;;;;;;;32.42;26.98;;;15.50;99.90;;;;;;5021012;28;20030;-80
2021/09/17 00:21:37;;;;;;;34.67;28.17;;;15.30;99.90;;;;;;5021742;28;20034;-80
2021/09/17 00:24:03;;;;;;;35.55;28.00;;;15.30;99.90;;;;;;5021601;28;20049;-80
2021/09/17 00:26:29;;;;;;;33.95;27.92;;;15.30;99.90;;;;;;5021173;28;20030;-80
2021/09/17 00:28:55;;;;;;;35.55;28.75;;;15.40;99.90;;;;;;5020978;28;20026;-80
2021/09/17 00:31:21;;;;;;;31.85;25.92;;;15.40;99.90;;;;;;5021347;28;20482;-80
2021/09/17 00:33:47;;;;;;;36.75;29.25;;;15.30;99.90;;;;;;5020384;28;20479;-79
2021/09/17 00:36:12;;;;;;;32.25;27.83;;;15.30;99.90;;;;;;5021309;28;20061;-80
2021/09/17 00:38:38;;;;;;;33.95;28.30;;;15.30;99.90;;;;;;5020188;28;20056;-80
2021/09/17 00:41:04;;;;;;;36.67;29.30;;;15.30;99.90;;;;;;5020909;28;20030;-80
2021/09/17 00:43:30;;;;;;;36.10;29.52;;;15.10;99.90;;;;;;5021965;28;20022;-79
2021/09/17 00:45:55;;;;;;;37.80;30.70;;;15.10;99.90;;;;;;5021926;28;20031;-80
2021/09/17 00:48:21;;;;;;;39.85;30.70;;;15.10;99.90;;;;;;5021225;28;20145;-79
2021/09/17 00:50:47;;;;;;;37.47;29.58;;;15.10;99.90;;;;;;5016763;28;20497;-79
2021/09/17 00:53:13;;;;;;;35.85;29.45;;;15.20;99.90;;;;;;5017549;28;20041;-79
2021/09/17 00:55:39;;;;;;;33.75;28.70;;;15.20;99.90;;;;;;5018494;28;20084;-79
2021/09/17 00:58:05;;;;;;;37.72;29.27;;;15.20;99.90;;;;;;5016435;28;20068;-79
2021/09/17 01:00:30;;;;;;;36.80;30.00;;;15.10;99.90;;;;;;5016916;28;20033;-79
2021/09/17 01:02:56;;;;;;;37.47;28.92;;;15.00;99.90;;;;;;5016941;28;20449;-79
2021/09/17 01:05:22;;;;;;;34.22;29.10;;;14.90;99.90;;;;;;5016977;28;20117;-79
2021/09/17 01:07:48;;;;;;;38.72;30.10;;;15.00;99.90;;;;;;5018536;28;20029;-79
2021/09/17 01:10:15;;;;;;;37.75;31.45;;;14.90;99.90;;;;;;5015938;28;20045;-79
2021/09/17 01:12:42;;;;;;;38.95;30.83;;;14.90;99.90;;;;;;5017121;28;20093;-79
2021/09/17 01:15:09;;;;;;;38.22;32.33;;;14.90;99.90;;;;;;5016233;28;20026;-78
2021/09/17 01:17:43;;;;;;;37.78;31.27;;;14.90;99.90;;;;;;5016371;28;20021;-79
2021/09/17 01:20:17;;;;;;;38.20;32.53;;;14.90;99.90;;;;;;5015013;28;20030;-79
2021/09/17 01:22:43;;;;;;;42.05;33.63;;;14.90;99.90;;;;;;5016123;28;20040;-79
2021/09/17 01:25:11;;;;;;;40.80;34.42;;;14.80;99.90;;;;;;5015129;28;20022;-79
2021/09/17 01:27:37;;;;;;;41.28;34.55;;;14.80;99.90;;;;;;5014359;28;20022;-79
2021/09/17 01:30:05;;;;;;;43.55;36.40;;;14.80;99.90;;;;;;5015498;28;20065;-80
2021/09/17 01:32:31;;;;;;;45.60;37.53;;;14.70;99.90;;;;;;5014622;28;20026;-79
2021/09/17 01:34:57;;;;;;;43.22;36.03;;;14.70;99.90;;;;;;5014945;28;20525;-79
2021/09/17 01:37:23;;;;;;;43.30;35.67;;;14.70;99.90;;;;;;5016565;28;20026;-79
2021/09/17 01:39:49;;;;;;;47.38;37.30;;;14.70;99.90;;;;;;5016136;28;20052;-79
2021/09/17 01:42:15;;;;;;;49.63;37.35;;;14.70;99.90;;;;;;5015664;28;20026;-79
2021/09/17 01:44:41;;;;;;;45.05;34.17;;;14.70;99.90;;;;;;5017043;28;20034;-79
2021/09/17 01:47:07;;;;;;;39.85;33.45;;;14.70;99.90;;;;;;5015238;28;20057;-79
2021/09/17 01:49:34;;;;;;;41.08;34.97;;;14.60;99.90;;;;;;5015786;28;20030;-79
2021/09/17 01:52:00;;;;;;;45.15;36.25;;;14.40;99.90;;;;;;5014827;28;20030;-79
2021/09/17 01:54:27;;;;;;;44.42;36.17;;;14.40;99.90;;;;;;5015496;28;20049;-79
2021/09/17 01:56:53;;;;;;;48.05;36.15;;;14.40;99.90;;;;;;5015938;28;20125;-79
2021/09/17 01:59:19;;;;;;;43.95;35.47;;;14.30;99.90;;;;;;5017304;28;20057;-79
2021/09/17 02:01:44;;;;;;;42.78;35.20;;;14.30;99.90;;;;;;5015436;28;20026;-79
2021/09/17 02:04:10;;;;;;;43.10;36.72;;;14.30;99.90;;;;;;5015012;28;20146;-78
2021/09/17 02:06:36;;;;;;;42.33;35.83;;;14.30;99.90;;;;;;5012695;28;20022;-78
2021/09/17 02:09:03;;;;;;;44.67;36.58;;;14.30;99.90;;;;;;5012534;28;20392;-79
2021/09/17 02:11:28;;;;;;;44.05;35.17;;;14.30;99.90;;;;;;5012935;28;20065;-78
2021/09/17 02:13:55;;;;;;;43.67;36.25;;;14.20;99.90;;;;;;5016307;28;20096;-80
2021/09/17 02:16:21;;;;;;;43.28;35.85;;;14.00;99.90;;;;;;5018285;28;20190;-80
2021/09/17 02:18:47;;;;;;;42.40;34.70;;;14.00;99.90;;;;;;5020461;28;20046;-81
2021/09/17 02:21:20;;;;;;;44.35;34.33;;;14.00;99.90;;;;;;5019230;28;20113;-81
2021/09/17 02:23:46;;;;;;;45.08;34.88;;;13.90;99.90;;;;;;5018771;28;20379;-78
2021/09/17 02:26:12;;;;;;;41.97;35.13;;;13.80;99.90;;;;;;5015170;28;20026;-79
2021/09/17 02:28:38;;;;;;;43.63;34.95;;;13.90;99.90;;;;;;5015398;28;20029;-79
2021/09/17 02:31:05;;;;;;;41.20;34.20;;;13.90;99.90;;;;;;5015432;28;20545;-78
2021/09/17 02:33:32;;;;;;;41.80;34.75;;;13.80;99.90;;;;;;5015716;28;20049;-79
2021/09/17 02:35:58;;;;;;;39.45;34.35;;;13.70;99.90;;;;;;5016400;28;20112;-78
2021/09/17 02:38:25;;;;;;;41.30;34.45;;;13.70;99.90;;;;;;5016454;28;20431;-78
2021/09/17 02:40:51;;;;;;;41.88;34.90;;;13.60;99.90;;;;;;5015389;28;20022;-79
2021/09/17 02:43:17;;;;;;;43.08;35.47;;;13.60;99.90;;;;;;5015199;28;20026;-79
2021/09/17 02:45:43;;;;;;;43.85;37.75;;;13.70;99.90;;;;;;5015986;28;20021;-79
2021/09/17 02:48:09;;;;;;;47.97;36.90;;;13.70;99.90;;;;;;5014940;28;20095;-79
2021/09/17 02:50:35;;;;;;;46.30;36.55;;;13.70;99.90;;;;;;5014952;28;20057;-79
2021/09/17 02:53:01;;;;;;;42.38;35.58;;;13.60;99.90;;;;;;5015213;28;20046;-79
2021/09/17 02:55:27;;;;;;;48.35;38.08;;;13.50;99.90;;;;;;5015610;28;20026;-79
2021/09/17 02:57:53;;;;;;;46.35;37.35;;;13.50;99.90;;;;;;5017068;28;20057;-79
2021/09/17 03:00:19;;;;;;;57.35;40.40;;;13.50;99.90;;;;;;5018156;28;20030;-79
2021/09/17 03:02:45;;;;;;;48.55;37.78;;;13.40;99.90;;;;;;5021112;28;20165;-80
2021/09/17 03:05:12;;;;;;;48.00;38.03;;;13.40;99.90;;;;;;5022760;28;20053;-80
2021/09/17 03:07:37;;;;;;;53.38;40.60;;;13.40;99.90;;;;;;5022220;28;20439;-80
2021/09/17 03:10:04;;;;;;;52.20;40.92;;;13.40;99.90;;;;;;5022247;28;20197;-80
2021/09/17 03:12:30;;;;;;;57.63;44.50;;;13.50;99.90;;;;;;5020363;28;20542;-78
2021/09/17 03:14:56;;;;;;;63.83;47.22;;;13.50;99.90;;;;;;5020323;28;20057;-80
2021/09/17 03:17:22;;;;;;;63.80;47.05;;;13.50;99.90;;;;;;5022320;28;20105;-80
2021/09/17 03:19:47;;;;;;;68.85;48.95;;;13.50;99.90;;;;;;5021760;28;20040;-80
2021/09/17 03:22:13;;;;;;;64.07;47.47;;;13.50;99.90;;;;;;5022720;28;20034;-80
2021/09/17 03:24:39;;;;;;;69.75;49.88;;;13.50;99.90;;;;;;5005804;28;20048;-80
2021/09/17 03:27:05;;;;;;;78.30;52.30;;;13.50;99.90;;;;;;5021970;28;20566;-80
2021/09/17 03:29:31;;;;;;;76.40;51.95;;;13.50;99.90;;;;;;5022118;28;20022;-80
2021/09/17 03:31:57;;;;;;;74.88;51.88;;;13.50;99.90;;;;;;5020401;28;20026;-80
2021/09/17 03:34:23;;;;;;;66.05;48.13;;;13.50;99.90;;;;;;5022624;28;20033;-80
2021/09/17 03:36:49;;;;;;;67.15;46.97;;;13.50;99.90;;;;;;5021771;28;20037;-80
2021/09/17 03:39:15;;;;;;;64.72;48.05;;;13.50;99.90;;;;;;5021392;28;20029;-80
2021/09/17 03:41:44;;;;;;;67.57;47.25;;;13.40;99.90;;;;;;5015215;28;20025;-78
2021/09/17 03:44:11;;;;;;;83.32;57.30;;;13.50;99.90;;;;;;5021398;28;20080;-80
2021/09/17 03:46:37;;;;;;;78.45;51.90;;;13.50;99.90;;;;;;5021430;28;20049;-80
2021/09/17 03:49:03;;;;;;;81.22;55.45;;;13.50;99.90;;;;;;5021691;28;20022;-80
2021/09/17 03:51:29;;;;;;;89.53;58.38;;;13.50;99.90;;;;;;5022875;28;20550;-80
2021/09/17 03:53:55;;;;;;;93.47;61.58;;;13.50;99.90;;;;;;5021448;28;20064;-80
2021/09/17 03:56:20;;;;;;;80.40;53.58;;;13.40;99.90;;;;;;5021737;28;20495;-80
2021/09/17 03:58:46;;;;;;;90.30;58.45;;;13.50;99.90;;;;;;5021911;28;20033;-80
2021/09/17 04:01:12;;;;;;;93.70;59.75;;;13.40;99.90;;;;;;5021346;28;20113;-80
2021/09/17 04:03:38;;;;;;;84.00;57.38;;;13.40;99.90;;;;;;5020939;28;20029;-80
2021/09/17 04:06:04;;;;;;;88.45;58.83;;;13.40;99.90;;;;;;5023054;28;20025;-80
2021/09/17 04:08:29;;;;;;;91.93;61.33;;;13.40;99.90;;;;;;5020827;28;20033;-80
2021/09/17 04:10:55;;;;;;;96.00;62.08;;;13.40;99.90;;;;;;5021097;28;20144;-80
2021/09/17 04:13:21;;;;;;;102.03;64.25;;;13.40;99.90;;;;;;5022933;28;20030;-80
2021/09/17 04:15:47;;;;;;;91.97;61.38;;;13.40;99.90;;;;;;5021387;28;20026;-80
2021/09/17 04:18:13;;;;;;;84.22;55.95;;;13.40;99.90;;;;;;5022517;28;20078;-80
2021/09/17 04:20:39;;;;;;;93.93;60.28;;;13.40;99.90;;;;;;5022103;28;20057;-79
2021/09/17 04:23:05;;;;;;;96.95;61.90;;;13.40;99.90;;;;;;5021921;28;20414;-80
2021/09/17 04:25:30;;;;;;;102.35;64.22;;;13.40;99.90;;;;;;5021500;28;20427;-80
2021/09/17 04:27:57;;;;;;;97.93;62.55;;;13.40;99.90;;;;;;5021999;28;20033;-80
2021/09/17 04:30:23;;;;;;;91.80;57.78;;;13.30;99.90;;;;;;5020723;28;20069;-80
2021/09/17 04:32:49;;;;;;;86.38;56.33;;;13.30;99.90;;;;;;5021605;28;20022;-80
2021/09/17 04:35:15;;;;;;;95.75;59.35;;;13.20;99.90;;;;;;5019227;28;20052;-80
2021/09/17 04:37:47;;;;;;;100.30;61.63;;;13.30;99.90;;;;;;5017622;28;20426;-80
2021/09/17 04:40:15;;;;;;;102.10;60.53;;;13.40;99.90;;;;;;5018241;28;20022;-81
2021/09/17 04:42:41;;;;;;;101.90;61.28;;;13.40;99.90;;;;;;5017390;28;20493;-81
2021/09/17 04:45:09;;;;;;;113.65;66.70;;;13.30;99.90;;;;;;5017910;28;20036;-81
2021/09/17 04:47:35;;;;;;;98.25;62.92;;;13.30;99.90;;;;;;5022384;28;20048;-80
2021/09/17 04:50:03;;;;;;;106.22;60.83;;;13.40;99.90;;;;;;5005751;28;20026;-80
2021/09/17 04:52:29;;;;;;;95.13;59.45;;;13.30;99.90;;;;;;5023581;28;20084;-80
2021/09/17 04:54:59;;;;;;;106.60;60.33;;;13.30;99.90;;;;;;5023095;28;20054;-80
2021/09/17 04:57:25;;;;;;;108.65;58.13;;;13.30;99.90;;;;;;5020967;28;20033;-80
2021/09/17 04:59:51;;;;;;;149.77;61.00;;;13.30;99.90;;;;;;5023319;28;20507;-79
2021/09/17 05:02:17;;;;;;;107.20;59.85;;;13.30;99.90;;;;;;5023571;28;20025;-80
2021/09/17 05:04:42;;;;;;;138.40;57.63;;;13.20;99.90;;;;;;5022136;28;20415;-80
2021/09/17 05:07:08;;;;;;;157.07;58.40;;;13.20;99.90;;;;;;5022579;28;20029;-80
2021/09/17 05:09:34;;;;;;;167.93;63.08;;;13.20;99.90;;;;;;5021502;28;20030;-80
2021/09/17 05:12:00;;;;;;;150.07;58.47;;;13.30;99.90;;;;;;5020645;28;20113;-80
2021/09/17 05:14:25;;;;;;;165.07;57.70;;;13.30;99.90;;;;;;5022549;28;20037;-81
2021/09/17 05:16:51;;;;;;;187.57;58.03;;;13.40;99.90;;;;;;5021746;28;20041;-81
2021/09/17 05:19:18;;;;;;;153.07;57.22;;;13.40;99.90;;;;;;5021291;28;20030;-80
2021/09/17 05:21:45;;;;;;;199.57;55.50;;;13.40;99.90;;;;;;5019735;28;20029;-80
2021/09/17 05:24:10;;;;;;;163.20;57.97;;;13.40;99.90;;;;;;5021530;28;20116;-80
2021/09/17 05:26:36;;;;;;;139.30;56.47;;;13.40;99.90;;;;;;5021091;28;20049;-80
2021/09/17 05:29:02;;;;;;;212.45;57.05;;;13.50;99.90;;;;;;5021215;28;20025;-80
2021/09/17 05:31:28;;;;;;;159.05;50.70;;;13.50;99.90;;;;;;5020994;28;20114;-80
2021/09/17 05:33:54;;;;;;;205.30;56.30;;;13.50;99.90;;;;;;5020159;28;20033;-80
2021/09/17 05:36:19;;;;;;;174.85;55.40;;;13.40;99.90;;;;;;5021079;28;20072;-80
2021/09/17 05:38:45;;;;;;;108.05;51.50;;;13.40;99.90;;;;;;5019940;28;20022;-80
2021/09/17 05:41:11;;;;;;;208.77;51.40;;;13.30;99.90;;;;;;5019640;28;20452;-80
2021/09/17 05:43:37;;;;;;;192.77;51.45;;;13.30;99.90;;;;;;5019661;28;20026;-80
2021/09/17 05:46:03;;;;;;;161.52;47.33;;;13.30;99.90;;;;;;5017341;28;20352;-80
2021/09/17 05:48:29;;;;;;;156.57;46.65;;;13.30;99.90;;;;;;5018692;28;20022;-80
2021/09/17 05:50:54;;;;;;;137.35;48.03;;;13.20;99.90;;;;;;5018760;28;20033;-80
2021/09/17 05:53:20;;;;;;;125.00;49.03;;;13.20;99.90;;;;;;5019005;28;20042;-80
2021/09/17 05:55:46;;;;;;;119.35;45.85;;;13.20;99.90;;;;;;5016358;28;20053;-80
2021/09/17 05:58:12;;;;;;;141.73;45.47;;;13.20;99.90;;;;;;5013416;28;20098;-80
2021/09/17 06:00:38;;;;;;;103.45;41.90;;;13.20;99.90;;;;;;5017561;28;20022;-80
2021/09/17 06:03:03;;;;;;;125.35;44.53;;;13.20;99.90;;;;;;5015970;28;21407;-80
2021/09/17 06:05:30;;;;;;;108.13;42.20;;;13.30;99.90;;;;;;5013059;28;20025;-83
2021/09/17 06:07:56;;;;;;;83.63;42.28;;;13.30;99.90;;;;;;5015859;28;20080;-81
2021/09/17 06:10:22;;;;;;;109.63;42.38;;;13.50;99.90;;;;;;5016391;28;20042;-80
2021/09/17 06:12:48;;;;;;;87.97;35.35;;;13.40;99.90;;;;;;5014765;28;20044;-83
2021/09/17 06:15:17;;;;;;;69.07;37.15;;;13.50;99.90;;;;;;5015646;28;20022;-85
2021/09/17 06:17:44;;;;;;;65.80;36.47;;;13.40;99.90;;;;;;5015451;28;20447;-80
2021/09/17 06:20:11;;;;;;;101.22;38.03;;;13.40;99.90;;;;;;5017250;28;20033;-81
2021/09/17 06:22:39;;;;;;;84.57;34.22;;;13.40;99.90;;;;;;5014020;28;20022;-83
2021/09/17 06:25:06;;;;;;;60.55;35.08;;;13.50;99.90;;;;;;5009954;28;20034;-86
2021/09/17 06:27:32;;;;;;;78.70;35.17;;;13.40;99.90;;;;;;5017400;28;20050;-84
2021/09/17 06:29:59;;;;;;;67.57;36.38;;;13.30;99.90;;;;;;5015914;28;20029;-81
2021/09/17 06:32:30;;;;;;;73.20;37.33;;;13.40;99.90;;;;;;5013659;28;20030;-88
2021/09/17 06:34:58;;;;;;;49.15;31.60;;;13.30;99.90;;;;;;5012999;28;20030;-84
2021/09/17 06:37:24;;;;;;;52.50;32.33;;;13.30;99.90;;;;;;5012783;28;20038;-83
2021/09/17 06:39:50;;;;;;;67.65;34.63;;;13.20;99.90;;;;;;5024911;28;20159;-81
2021/09/17 06:42:15;;;;;;;50.25;34.42;;;13.20;99.90;;;;;;5011617;28;20544;-81
2021/09/17 06:44:41;;;;;;;73.53;35.30;;;13.40;99.90;;;;;;5015558;28;20026;-83
2021/09/17 06:47:07;;;;;;;77.75;30.73;;;13.40;99.90;;;;;;5010540;28;20022;-82
2021/09/17 06:49:33;;;;;;;72.57;33.80;;;13.60;99.90;;;;;;5012500;28;20045;-79
2021/09/17 06:51:59;;;;;;;48.67;33.17;;;13.60;99.90;;;;;;5012591;28;20037;-82
2021/09/17 06:54:24;;;;;;;67.50;33.53;;;13.60;99.90;;;;;;5020837;28;20084;-82
2021/09/17 06:56:50;;;;;;;59.22;30.33;;;13.60;99.90;;;;;;5014048;28;20026;-79
2021/09/17 06:59:16;;;;;;;48.97;28.25;;;13.70;99.90;;;;;;5016867;28;20109;-79
2021/09/17 07:01:42;;;;;;;68.63;31.40;;;13.90;99.90;;;;;;5008792;28;20026;-83
2021/09/17 07:04:08;;;;;;;60.63;30.20;;;13.80;99.90;;;;;;5021772;28;20029;-80
2021/09/17 07:06:33;;;;;;;45.08;28.85;;;13.90;99.90;;;;;;5018709;28;20026;-80
2021/09/17 07:08:59;;;;;;;49.15;32.03;;;13.90;99.90;;;;;;5019648;28;20109;-82
2021/09/17 07:11:27;;;;;;;50.05;29.67;;;13.80;99.90;;;;;;5020935;28;20112;-81
2021/09/17 07:13:54;;;;;;;51.47;31.60;;;14.00;99.90;;;;;;5020703;28;20030;-87
2021/09/17 07:16:20;;;;;;;38.13;28.75;;;13.90;99.90;;;;;;5019446;28;20026;-80
2021/09/17 07:18:46;;;;;;;56.22;29.77;;;14.00;99.90;;;;;;5019442;28;20531;-80
2021/09/17 07:21:12;;;;;;;44.90;27.55;;;14.00;99.90;;;;;;5016226;28;20018;-80
2021/09/17 07:23:38;;;;;;;52.33;26.27;;;14.10;99.90;;;;;;5010753;28;20025;-80
2021/09/17 07:26:04;;;;;;;101.38;30.05;;;14.10;99.90;;;;;;5001763;28;20037;-83
2021/09/17 07:28:33;;;;;;;36.55;26.83;;;14.00;99.90;;;;;;5019591;28;20034;-82
2021/09/17 07:31:02;;;;;;;40.33;27.50;;;14.20;99.90;;;;;;5017816;28;20022;-84
2021/09/17 07:33:28;;;;;;;56.33;29.83;;;14.10;99.90;;;;;;5013206;28;20499;-80
2021/09/17 07:35:54;;;;;;;47.47;29.92;;;14.30;99.90;;;;;;5010303;28;20080;-80
2021/09/17 07:38:20;;;;;;;35.35;27.65;;;14.30;99.90;;;;;;5014463;28;20038;-81
2021/09/17 07:40:46;;;;;;;39.97;28.08;;;14.60;99.90;;;;;;5021458;28;20506;-82
2021/09/17 07:43:12;;;;;;;40.35;26.58;;;14.70;99.90;;;;;;5010459;28;20033;-79
2021/09/17 07:45:37;;;;;;;37.03;28.92;;;14.90;99.90;;;;;;5021635;28;20006;-88
2021/09/17 07:48:03;;;;;;;37.05;29.30;;;15.20;99.90;;;;;;5021973;28;20065;-79
2021/09/17 07:50:30;;;;;;;34.97;26.45;;;15.60;99.90;;;;;;5015432;28;20026;-79
2021/09/17 07:52:57;;;;;;;31.20;25.08;;;16.00;99.90;;;;;;5010927;28;20061;-79
2021/09/17 07:55:23;;;;;;;31.65;26.17;;;16.20;99.90;;;;;;5008020;28;20060;-80
2021/09/17 07:57:52;;;;;;;28.65;24.85;;;16.30;99.90;;;;;;5023336;28;20033;-81
2021/09/17 08:00:18;;;;;;;37.38;25.92;;;16.40;99.90;;;;;;5013799;28;20025;-79
2021/09/17 08:02:44;;;;;;;32.50;26.02;;;16.40;99.90;;;;;;5011560;28;21334;-80
2021/09/17 08:05:11;;;;;;;32.45;26.83;;;15.90;99.90;;;;;;5016146;28;20042;-84
2021/09/17 08:07:38;;;;;;;36.17;27.63;;;15.70;99.90;;;;;;5019266;28;20029;-81
2021/09/17 08:10:04;;;;;;;47.33;27.67;;;15.80;99.90;;;;;;5016265;28;20034;-85
2021/09/17 08:12:30;;;;;;;37.92;27.30;;;15.80;99.90;;;;;;5013376;28;20026;-83
2021/09/17 08:14:57;;;;;;;39.70;27.52;;;15.90;99.90;;;;;;5011818;28;20129;-88
2021/09/17 08:17:23;;;;;;;39.10;28.50;;;16.10;99.90;;;;;;5014264;28;20129;-87
2021/09/17 08:19:48;;;;;;;38.85;27.85;;;16.00;99.90;;;;;;5016742;28;20071;-83
2021/09/17 08:22:15;;;;;;;33.72;26.98;;;16.20;99.90;;;;;;5011588;28;20505;-82
2021/09/17 08:24:40;;;;;;;32.25;26.13;;;16.60;99.90;;;;;;5014029;28;20030;-81
2021/09/17 08:27:06;;;;;;;29.30;24.25;;;16.80;99.90;;;;;;5011608;28;20357;-86
2021/09/17 08:29:32;;;;;;;31.30;25.55;;;17.00;99.90;;;;;;5012313;28;21711;-85
2021/09/17 08:31:59;;;;;;;31.00;24.27;;;17.30;99.90;;;;;;5010483;28;20056;-80
2021/09/17 08:34:25;;;;;;;26.88;21.83;;;18.30;99.90;;;;;;5007026;28;20038;-82
2021/09/17 08:36:51;;;;;;;26.48;22.30;;;19.40;99.90;;;;;;5007188;28;20060;-79
2021/09/17 08:39:17;;;;;;;26.48;22.23;;;19.80;99.90;;;;;;5011746;28;20018;-80
2021/09/17 08:41:44;;;;;;;26.98;23.02;;;20.00;99.90;;;;;;5015275;28;20018;-80
2021/09/17 08:44:10;;;;;;;28.02;22.08;;;20.20;99.90;;;;;;5010776;28;20045;-79
2021/09/17 08:46:41;;;;;;;25.85;22.13;;;20.30;99.90;;;;;;5017423;28;20029;-80
2021/09/17 08:49:08;;;;;;;29.23;22.80;;;20.30;99.90;;;;;;5008811;28;20033;-80
2021/09/17 08:51:34;;;;;;;26.33;22.02;;;20.50;99.90;;;;;;5018555;28;20196;-80
2021/09/17 08:54:03;;;;;;;26.88;22.63;;;20.50;99.90;;;;;;5015413;28;20057;-79
2021/09/17 08:56:29;;;;;;;27.55;23.70;;;20.60;99.90;;;;;;5011325;28;20026;-82
2021/09/17 08:58:55;;;;;;;30.13;23.75;;;21.00;99.90;;;;;;5017346;28;20167;-84
2021/09/17 09:01:39;;;;;;;31.65;24.70;;;21.20;99.90;;;;;;5018146;28;20018;-82
2021/09/17 09:04:08;;;;;;;29.17;24.73;;;21.20;99.90;;;;;;5005676;28;20036;-82
2021/09/17 09:06:39;;;;;;;31.95;24.48;;;21.10;99.90;;;;;;5014368;28;20049;-82
2021/09/17 09:09:15;;;;;;;32.47;26.42;;;21.00;99.90;;;;;;5017765;28;20051;-83
2021/09/17 09:11:41;;;;;;;32.00;25.10;;;20.70;99.90;;;;;;5015271;28;21324;-83
2021/09/17 09:14:13;;;;;;;30.77;25.85;;;20.90;99.90;;;;;;5019938;28;20022;-82
2021/09/17 09:16:51;;;;;;;33.83;26.35;;;21.40;99.90;;;;;;5015363;28;20025;-82
2021/09/17 09:19:29;;;;;;;30.75;24.95;;;22.10;99.90;;;;;;5016259;28;20615;-83
2021/09/17 09:22:15;;;;;;;32.00;26.27;;;22.70;99.90;;;;;;5014200;28;20193;-81
2021/09/17 09:24:44;;;;;;;36.03;27.00;;;22.50;99.90;;;;;;5016136;28;20085;-82
2021/09/17 09:27:14;;;;;;;39.08;27.38;;;22.20;99.90;;;;;;5017294;28;20026;-82
2021/09/17 09:29:45;;;;;;;36.67;26.95;;;22.60;99.90;;;;;;5019292;28;20553;-83
2021/09/17 09:32:31;;;;;;;34.53;27.55;;;22.60;99.90;;;;;;5011568;28;20030;-84
2021/09/17 09:34:59;;;;;;;37.38;28.27;;;22.50;99.90;;;;;;5021671;28;20033;-85
2021/09/17 09:37:31;;;;;;;40.60;27.70;;;21.40;99.90;;;;;;5009240;28;20026;-83
2021/09/17 09:40:05;;;;;;;37.22;30.45;;;21.10;99.90;;;;;;5010057;28;20033;-83
2021/09/17 09:42:34;;;;;;;40.05;28.77;;;21.40;99.90;;;;;;5016932;28;20391;-83
2021/09/17 09:45:18;;;;;;;42.40;28.80;;;21.70;99.90;;;;;;5016475;28;20022;-79
2021/09/17 09:47:49;;;;;;;42.22;28.88;;;21.40;99.90;;;;;;5010101;28;20351;-80
2021/09/17 09:50:26;;;;;;;42.63;31.58;;;21.40;99.90;;;;;;4991855;28;20044;-80
2021/09/17 09:52:56;;;;;;;40.40;29.50;;;21.10;99.90;;;;;;5008627;28;20586;-82
2021/09/17 09:55:22;;;;;;;40.38;28.73;;;21.90;99.90;;;;;;5003804;28;20034;-78
2021/09/17 09:57:48;;;;;;;36.67;27.17;;;22.20;99.90;;;;;;4998110;28;20030;-79
2021/09/17 10:00:16;;;;;;;35.75;26.42;;;22.10;99.90;;;;;;5002030;28;20045;-79
2021/09/17 10:02:44;;;;;;;35.45;26.77;;;22.70;99.90;;;;;;5005243;28;20018;-79
2021/09/17 10:05:12;;;;;;;34.28;25.33;;;22.90;99.90;;;;;;5008960;28;20029;-79
2021/09/17 10:07:39;;;;;;;33.20;25.52;;;23.20;99.90;;;;;;5011712;28;20033;-79
2021/09/17 10:10:08;;;;;;;31.20;24.77;;;22.90;99.90;;;;;;5015095;28;20755;-79
2021/09/17 10:12:34;;;;;;;32.42;24.92;;;22.70;99.90;;;;;;5014581;28;20075;-79
2021/09/17 10:15:01;;;;;;;31.17;23.58;;;23.00;99.90;;;;;;5021779;28;20729;-79
2021/09/17 10:17:30;;;;;;;31.75;25.02;;;22.70;99.90;;;;;;5018388;28;20036;-79
2021/09/17 10:19:59;;;;;;;27.45;23.15;;;22.90;99.90;;;;;;5016751;28;20364;-80
2021/09/17 10:22:47;;;;;;;30.52;22.30;;;23.60;99.90;;;;;;5018637;28;21639;-83
2021/09/17 10:25:22;;;;;;;28.33;22.42;;;22.70;99.90;;;;;;5020958;28;20029;-81
2021/09/17 10:28:11;;;;;;;27.63;21.23;;;23.40;99.90;;;;;;5015879;28;20029;-80
2021/09/17 10:30:39;;;;;;;27.20;22.33;;;24.00;99.90;;;;;;5006862;28;20026;-82
2021/09/17 10:33:24;;;;;;;28.45;22.98;;;24.60;99.90;;;;;;5008164;28;20049;-81
2021/09/17 10:35:51;;;;;;;27.33;20.08;;;25.90;99.90;;;;;;5017141;28;20017;-79
2021/09/17 10:38:20;;;;;;;21.80;17.67;;;25.70;99.90;;;;;;5021078;28;20025;-82
2021/09/17 10:41:04;;;;;;;26.65;19.52;;;25.00;99.90;;;;;;5021418;28;20042;-84
2021/09/17 10:43:36;;;;;;;23.02;19.73;;;25.30;99.90;;;;;;5014217;28;20026;-80
2021/09/17 10:46:23;;;;;;;;;;;25.40;99.90;;;;;;5022491;28;20112;-83
2021/09/17 10:48:51;;;;;;;23.52;18.02;;;25.60;99.90;;;;;;5018361;28;20286;-83
2021/09/17 10:51:35;;;;;;;17.92;15.98;;;25.70;99.90;;;;;;5019263;28;20021;-84
2021/09/17 10:54:08;;;;;;;19.00;14.77;;;25.20;99.90;;;;;;5021814;28;20073;-81
2021/09/17 10:57:03;;;;;;;26.58;16.73;;;25.70;99.90;;;;;;5017281;28;20034;-82
2021/09/17 10:59:40;;;;;;;22.75;16.10;;;25.80;99.90;;;;;;5026121;28;20010;-83
2021/09/17 11:02:08;;;;;;;16.33;14.52;;;26.50;99.90;;;;;;5020510;28;20026;-80
2021/09/17 11:04:42;;;;;;;21.27;15.05;;;26.80;99.50;;;;;;5027516;28;20018;-81
2021/09/17 11:07:33;;;;;;;16.30;14.63;;;26.00;99.90;;;;;;5023395;28;20022;-86
2021/09/17 11:09:59;;;;;;;18.38;14.85;;;25.70;99.80;;;;;;5008779;28;20038;-80
2021/09/17 11:12:28;;;;;;;18.02;15.30;;;24.90;99.90;;;;;;5007983;28;20022;-80
2021/09/17 11:15:11;;;;;;;19.58;15.32;;;24.90;99.90;;;;;;5010602;28;20029;-83
2021/09/17 11:17:44;;;;;;;20.35;16.80;;;25.30;99.90;;;;;;5010721;28;20390;-83
2021/09/17 11:20:14;;;;;;;18.83;15.68;;;25.80;99.90;;;;;;5009338;28;20030;-83
2021/09/17 11:22:55;;;;;;;17.60;15.52;;;26.40;99.40;;;;;;4996098;28;20026;-79
2021/09/17 11:25:28;;;;;;;18.08;16.17;;;26.40;99.60;;;;;;5010325;28;20221;-79
2021/09/17 11:27:55;;;;;;;20.48;15.73;;;26.80;99.20;;;;;;5013178;28;20106;-79
2021/09/17 11:30:32;;;;;;;18.23;15.85;;;27.40;99.20;;;;;;5015609;28;20026;-84
2021/09/17 11:32:58;;;;;;;18.33;16.42;;;27.20;98.20;;;;;;5032605;28;20021;-79
2021/09/17 11:35:24;;;;;;;18.77;16.63;;;26.20;99.50;;;;;;5019153;28;20061;-80
2021/09/17 11:37:58;;;;;;;18.38;16.45;;;26.70;98.40;;;;;;5013452;28;20021;-79
2021/09/17 11:40:27;;;;;;;17.88;15.30;;;27.70;96.90;;;;;;5011736;28;20164;-78
2021/09/17 11:42:54;;;;;;;17.02;15.30;;;27.80;96.90;;;;;;5012178;28;20079;-78
2021/09/17 11:45:26;;;;;;;17.42;15.57;;;27.70;96.40;;;;;;4991767;28;20133;-78
2021/09/17 11:47:54;;;;;;;18.65;16.65;;;28.60;95.20;;;;;;5001205;28;20030;-79
2021/09/17 11:50:26;;;;;;;17.45;15.45;;;27.50;96.90;;;;;;5013089;28;20041;-79
2021/09/17 11:53:10;;;;;;;17.10;15.32;;;27.80;96.30;;;;;;5023299;28;20028;-78
2021/09/17 11:55:35;;;;;;;18.42;15.88;;;28.30;96.20;;;;;;5006517;28;20022;-80
2021/09/17 11:58:01;;;;;;;17.67;15.88;;;27.90;96.00;;;;;;5010750;28;20032;-77
2021/09/17 12:00:29;;;;;;;17.63;15.32;;;28.10;96.20;;;;;;5012684;28;20025;-79
2021/09/17 12:03:06;;;;;;;14.45;13.05;;;28.20;95.20;;;;;;5012642;28;20038;-78
2021/09/17 12:05:36;;;;;;;14.23;12.85;;;29.20;93.70;;;;;;5010729;28;20113;-79
2021/09/17 12:08:02;;;;;;;14.93;13.32;;;29.80;92.70;;;;;;5008413;28;20030;-77
2021/09/17 12:10:37;;;;;;;13.63;12.32;;;29.80;91.90;;;;;;5010941;28;20513;-79
2021/09/17 12:13:11;;;;;;;13.70;12.40;;;29.90;91.60;;;;;;5009918;28;20022;-78
2021/09/17 12:15:39;;;;;;;13.93;12.52;;;29.00;92.10;;;;;;5012086;28;20103;-78
2021/09/17 12:18:07;;;;;;;14.23;12.75;;;29.00;92.50;;;;;;5008052;28;20080;-78
2021/09/17 12:20:44;;;;;;;14.55;13.05;;;29.10;91.60;;;;;;5007696;28;20101;-78
2021/09/17 12:23:21;;;;;;;12.82;11.52;;;29.00;92.70;;;;;;5006000;28;20084;-78
2021/09/17 12:25:49;;;;;;;13.63;12.23;;;29.60;92.20;;;;;;5010386;28;20109;-79
2021/09/17 12:28:21;;;;;;;13.30;11.90;;;29.30;92.70;;;;;;5012134;28;20034;-78
2021/09/17 12:30:49;;;;;;;13.23;11.85;;;28.50;92.70;;;;;;5009760;28;20095;-78